Date,TemperatureHighF,TemperatureAvgF,TemperatureLowF,DewpointHighF,DewpointAvgF,DewpointLowF,HumidityHigh,HumidityAvg,HumidityLow,PressureMaxIn,PressureMinIn,WindSpeedMaxMPH,WindSpeedAvgMPH,GustSpeedMaxMPH,PrecipitationSumIn
2013-1-1,47.1,44.6,39.4,46.2,39.8,19.2,98,85,43,30.12,29.92,8,1,8,0.57
2013-1-2,44.6,41.4,38.1,44.1,40.1,36.5,98,95,86,30.11,29.87,7,1,8,0.57
2013-1-3,40.8,36.7,28.2,39.0,35.2,23.7,98,94,83,30.27,30.06,5,1,6,0.00
2013-1-4,47.7,32.9,25.2,26.4,20.6,15.4,87,63,31,30.36,30.24,8,2,8,0.00
2013-1-5,44.8,35.9,26.4,37.6,21.1,0.5,91,58,19,30.38,30.21,10,1,12,0.02
2013-1-6,54.0,42.8,33.4,41.0,33.8,23.5,92,72,43,30.22,30.03,11,2,12,0.01
2013-1-7,50.4,37.6,28.6,30.2,25.7,20.3,85,63,41,30.40,30.15,7,1,11,0.00
2013-1-8,50.5,41.4,31.3,46.6,35.7,25.7,96,81,65,30.42,30.34,7,1,7,0.00
2013-1-9,56.1,52.2,47.5,53.1,50.7,46.4,98,95,87,30.43,30.36,8,0,8,0.00
2013-1-10,61.9,54.7,50.5,51.8,50.0,48.6,97,85,68,30.44,30.25,9,1,9,0.18
2013-1-11,56.5,53.1,50.7,56.1,52.6,49.8,99,98,97,30.26,30.10,9,1,10,1.54
2013-1-12,66.6,58.9,55.4,62.4,57.2,54.5,99,94,77,30.13,30.04,10,1,10,0.05
2013-1-13,59.2,56.8,55.6,57.0,55.7,54.0,99,96,91,30.07,30.00,14,2,14,0.38
2013-1-14,58.6,57.1,56.1,58.3,56.8,55.6,99,99,98,30.06,29.98,13,1,15,1.96
2013-1-15,56.7,53.4,50.2,56.3,53.1,49.8,99,99,99,30.04,29.94,8,1,10,2.05
2013-1-16,56.1,51.8,49.3,55.8,51.1,48.7,100,98,93,29.96,29.88,10,1,10,0.58
2013-1-17,50.7,44.6,31.6,49.8,43.6,27.3,98,97,84,30.13,29.63,7,1,9,2.20
2013-1-18,46.9,35.5,27.5,29.7,24.4,18.7,87,65,43,30.50,30.13,7,1,8,0.00
2013-1-19,50.4,38.2,29.1,34.7,25.7,8.4,84,62,20,30.48,30.19,11,1,11,0.00
2013-1-20,56.5,43.4,35.2,35.1,25.4,16.2,65,50,31,30.19,30.06,11,2,14,0.00
2013-1-21,52.2,39.8,28.9,30.7,21.2,13.5,63,48,33,30.07,29.96,18,2,18,0.00
2013-1-22,36.3,27.5,20.5,14.0,8.7,1.8,58,46,25,30.24,29.94,20,2,23,0.00
2013-1-23,46.9,33.7,23.2,27.0,20.2,8.6,72,58,41,30.33,30.09,13,2,13,0.00
2013-1-24,46.8,35.6,21.6,31.6,16.7,-4.2,75,50,12,30.40,29.98,23,2,23,0.00
2013-1-25,43.3,26.2,18.1,41.5,20.7,5.0,97,81,54,30.41,30.14,11,1,12,0.14
2013-1-26,50.4,38.0,32.4,37.4,29.5,20.7,94,73,32,30.31,30.13,11,1,11,0.00
2013-1-27,42.6,34.6,27.3,34.2,29.5,25.3,94,82,66,30.48,30.31,7,1,8,0.00
2013-1-28,56.5,45.9,34.0,49.6,41.1,29.3,97,84,55,30.45,30.24,12,1,12,0.00
2013-1-29,63.3,54.0,48.4,55.4,48.9,35.8,98,84,53,30.25,29.98,11,1,11,0.44
2013-1-30,57.9,53.2,40.3,57.6,52.6,37.4,99,98,87,29.98,29.42,19,3,24,5.52
2013-1-31,40.5,32.3,25.5,37.6,23.7,19.2,94,71,50,30.07,29.47,16,2,17,0.02
2013-2-1,36.1,28.5,21.0,29.3,12.0,-0.9,92,52,27,30.34,29.97,19,2,23,0.00
2013-2-2,37.2,27.0,20.5,30.0,16.3,-6.5,97,67,24,30.36,30.07,9,1,9,0.00
2013-2-3,40.8,32.8,28.0,33.1,26.2,21.9,95,77,57,30.08,29.90,23,3,23,0.23
2013-2-4,47.7,35.2,25.3,27.9,23.3,18.9,80,63,42,30.14,30.00,12,1,12,0.00
2013-2-5,55.2,44.1,36.0,40.8,30.9,20.5,74,60,40,30.01,29.93,14,1,15,0.00
2013-2-6,59.4,46.3,36.3,36.1,27.3,13.3,85,53,21,30.19,29.98,9,1,10,0.00
2013-2-7,43.2,40.7,38.8,39.7,32.3,22.3,98,75,44,30.20,29.96,5,1,7,0.32
2013-2-8,48.7,40.8,32.2,44.6,35.8,23.2,98,84,48,30.09,29.90,11,1,15,0.01
2013-2-9,55.4,41.6,29.8,27.1,19.5,8.8,81,44,17,30.32,30.06,8,1,9,0.00
2013-2-10,48.4,41.0,36.7,43.7,28.9,20.1,98,64,39,30.35,30.16,9,1,9,0.97
2013-2-11,54.9,48.3,42.3,53.2,42.9,22.1,99,83,41,30.17,29.96,10,1,14,0.39
2013-2-12,52.2,43.0,37.8,39.0,30.4,21.4,95,63,32,30.06,29.88,11,2,12,0.09
2013-2-13,48.9,37.9,32.4,44.8,35.8,28.9,98,92,71,29.89,29.64,14,2,14,0.10
2013-2-14,47.1,36.8,27.9,37.8,29.3,25.3,93,76,50,30.07,29.86,10,2,12,0.00
2013-2-15,55.8,42.2,34.5,35.2,30.6,26.2,89,66,34,30.09,29.92,10,1,11,0.00
2013-2-16,37.6,28.8,18.3,31.3,21.1,9.5,89,74,46,30.00,29.79,19,2,19,0.00
2013-2-17,35.8,24.4,15.8,13.3,8.5,3.7,68,52,28,30.31,29.99,14,3,19,0.00
2013-2-18,49.5,35.6,23.9,25.5,20.5,12.2,67,55,38,30.38,30.19,11,2,14,0.00
2013-2-19,49.6,37.1,30.7,41.4,26.3,13.3,97,68,40,30.20,29.89,15,2,19,0.29
2013-2-20,48.0,35.7,26.1,15.8,6.3,-8.3,53,32,12,30.13,29.97,16,2,17,0.00
2013-2-21,53.6,41.6,32.9,34.3,16.1,-6.3,95,40,14,30.19,30.08,7,1,8,0.37
2013-2-22,45.0,36.4,32.0,44.2,35.6,30.9,99,97,95,30.23,30.08,7,1,7,0.65
2013-2-23,48.7,46.9,43.2,48.2,46.5,42.3,99,98,96,30.09,29.80,6,1,6,0.39
2013-2-24,59.7,45.2,35.2,42.3,30.0,18.3,97,61,23,30.00,29.81,10,2,12,0.00
2013-2-25,45.0,39.3,32.2,32.2,26.9,23.2,96,62,49,30.07,29.95,8,1,8,0.11
2013-2-26,40.3,35.6,32.2,39.7,34.6,31.1,98,96,84,29.97,29.58,10,2,11,2.70
2013-2-27,54.5,40.4,32.4,39.7,31.8,25.0,89,73,36,29.80,29.67,15,2,15,0.01
2013-2-28,36.7,31.6,27.0,30.7,24.8,21.9,84,76,65,29.91,29.69,11,2,14,0.00
2013-3-1,40.5,31.7,25.9,28.4,25.6,23.0,90,79,61,29.95,29.87,9,2,10,0.00
2013-3-2,41.2,30.7,23.4,30.0,24.6,17.8,95,79,52,29.93,29.85,12,1,14,0.06
2013-3-3,41.2,26.7,19.4,19.6,16.1,12.9,82,66,35,30.00,29.90,21,2,21,0.00
2013-3-4,48.4,33.4,19.8,25.7,18.4,12.4,78,56,35,30.17,30.00,12,1,12,0.00
2013-3-5,47.1,40.5,30.6,46.4,35.4,25.0,98,83,57,30.12,29.64,16,2,20,0.80
2013-3-6,36.1,28.1,21.9,27.9,23.2,17.8,93,82,69,30.15,29.63,26,3,26,0.01
2013-3-7,53.6,36.5,24.4,34.7,27.0,21.7,91,71,45,30.25,30.12,11,2,11,0.00
2013-3-8,56.1,42.6,31.3,29.3,20.2,5.2,69,43,21,30.27,30.20,8,2,8,0.00
2013-3-9,57.4,45.2,36.5,31.5,24.4,6.4,53,44,22,30.29,30.22,8,1,8,0.00
2013-3-10,61.2,49.4,42.6,36.5,32.0,27.3,64,51,38,30.25,30.13,10,1,10,0.00
2013-3-11,49.8,46.3,43.5,49.5,44.8,35.2,99,95,63,30.14,29.81,10,1,13,1.90
2013-3-12,59.4,48.0,36.3,49.5,36.8,16.3,99,71,24,29.98,29.73,10,2,15,0.33
2013-3-13,45.3,35.7,26.2,28.9,22.6,16.7,77,60,34,30.15,29.97,15,2,20,0.00
2013-3-14,49.3,32.5,21.4,23.9,15.1,5.9,79,52,20,30.31,30.14,11,2,11,0.00
2013-3-15,66.0,47.8,32.7,40.8,31.3,10.8,79,55,28,30.22,29.95,13,2,15,0.00
2013-3-16,74.1,59.7,51.4,46.6,42.4,39.2,67,54,32,29.95,29.74,12,2,12,0.00
2013-3-17,69.3,57.7,51.4,49.6,45.4,41.0,84,64,40,29.91,29.80,12,1,12,0.00
2013-3-18,51.3,43.6,39.7,46.6,42.3,38.8,98,95,84,29.96,29.82,8,1,9,0.41
2013-3-19,57.0,46.0,36.5,44.6,28.4,12.9,97,57,20,30.04,29.83,13,2,18,0.00
2013-3-20,52.7,39.3,31.1,28.4,13.5,4.8,87,36,16,30.08,29.83,11,2,13,0.00
2013-3-21,41.4,29.8,20.5,27.5,11.4,4.8,87,48,27,29.96,29.70,18,3,18,0.00
2013-3-22,40.8,31.9,23.7,28.0,18.3,11.1,67,57,47,30.08,29.96,7,1,7,0.00
2013-3-23,55.8,43.2,38.3,48.2,39.3,27.3,97,86,64,30.06,29.86,6,1,7,0.06
2013-3-24,43.5,40.3,36.0,42.4,39.4,35.4,98,97,90,29.90,29.49,9,1,9,1.28
2013-3-25,36.3,30.8,25.0,35.6,24.5,19.4,98,78,60,29.91,29.51,18,3,20,0.01
2013-3-26,38.8,29.3,23.4,27.3,22.6,19.8,90,76,57,30.22,29.90,11,2,15,0.00
2013-3-27,51.6,35.0,23.4,22.1,19.6,13.5,83,58,24,30.28,30.19,15,2,15,0.00
2013-3-28,55.2,38.9,26.6,22.3,17.8,7.5,78,48,15,30.31,30.20,12,2,13,0.00
2013-3-29,53.4,40.7,34.0,37.4,26.3,16.5,93,59,34,30.32,30.21,8,1,10,0.03
2013-3-30,59.7,47.7,39.9,43.9,39.5,37.0,93,75,52,30.22,30.05,10,1,10,0.06
2013-3-31,60.4,51.1,45.7,53.2,48.1,43.2,98,90,64,30.04,29.81,10,1,11,0.46
2013-4-1,62.6,51.8,43.5,49.5,40.8,33.4,96,69,40,29.94,29.80,13,2,13,0.01
2013-4-2,63.9,48.3,36.0,33.6,23.0,1.2,74,43,11,30.09,29.92,13,2,13,0.00
2013-4-3,56.8,46.3,37.4,28.0,24.4,19.2,55,43,28,30.22,30.06,8,1,8,0.00
2013-4-4,45.1,36.1,32.7,34.7,31.7,25.7,96,86,47,30.22,29.96,7,1,9,0.77
2013-4-5,65.5,47.5,35.1,44.8,35.0,18.5,97,69,18,30.06,29.89,9,2,12,0.00
2013-4-6,65.8,52.4,43.0,36.7,32.3,27.3,65,48,29,30.18,30.05,10,2,10,0.00
2013-4-7,63.7,53.5,44.1,47.1,39.8,31.6,71,60,49,30.17,30.08,10,2,12,0.00
2013-4-8,67.3,59.9,49.6,54.9,49.1,43.2,85,68,56,30.11,30.04,12,1,12,0.00
2013-4-9,77.4,65.1,56.8,58.3,53.3,50.0,80,67,48,30.14,30.05,14,2,15,0.00
2013-4-10,79.3,67.3,58.8,60.3,55.0,52.0,79,66,46,30.06,29.88,12,2,12,0.00
2013-4-11,70.2,62.1,54.7,60.6,56.1,52.2,97,81,58,29.90,29.61,16,2,18,3.49
2013-4-12,74.1,60.7,48.7,57.4,46.3,31.5,98,65,24,29.78,29.55,17,3,19,1.11
2013-4-13,72.3,56.4,45.0,37.0,32.2,22.5,71,45,18,30.00,29.73,17,3,20,0.00
2013-4-14,64.4,55.1,48.7,48.4,39.4,31.1,95,58,38,30.03,29.93,10,1,10,0.40
2013-4-15,66.7,55.4,48.7,58.8,52.6,47.3,98,91,74,30.16,29.91,7,1,8,0.39
2013-4-16,73.0,61.8,55.2,61.7,56.7,53.8,98,84,63,30.23,30.15,8,1,10,0.02
2013-4-17,77.0,62.6,57.6,64.2,57.4,54.1,95,84,58,30.18,30.06,8,1,8,1.56
2013-4-18,71.8,62.2,57.4,60.1,57.1,54.3,97,84,61,30.07,29.89,14,1,14,0.00
2013-4-19,61.2,55.6,39.7,60.1,53.7,34.7,98,93,72,29.89,29.66,16,3,16,1.92
2013-4-20,62.1,46.1,33.4,37.6,30.2,23.0,83,57,31,30.25,29.83,15,2,18,0.00
2013-4-21,62.1,47.9,38.5,37.8,31.6,26.6,76,55,35,30.38,30.25,13,1,13,0.00
2013-4-22,65.7,49.2,38.1,43.9,37.7,33.4,91,67,35,30.35,30.17,10,1,10,0.00
2013-4-23,68.4,52.7,38.7,46.9,37.9,27.5,76,58,40,30.25,30.09,9,1,9,0.00
2013-4-24,67.5,56.6,51.6,56.1,50.7,44.4,96,81,62,30.12,29.99,12,1,13,0.02
2013-4-25,71.4,55.4,40.5,53.6,34.5,7.5,95,56,11,30.25,30.01,9,2,9,0.00
2013-4-26,68.2,54.8,43.3,39.7,33.0,26.2,57,44,30,30.35,30.24,11,2,11,0.00
2013-4-27,54.7,49.9,47.5,49.3,45.8,38.8,96,87,55,30.33,30.21,5,0,6,0.82
2013-4-28,50.5,48.3,45.0,50.0,47.6,44.2,98,97,96,30.22,30.02,5,0,7,2.25
2013-4-29,67.6,56.9,49.3,60.6,53.6,48.7,99,89,73,30.05,29.90,9,1,10,0.06
2013-4-30,71.8,59.6,51.6,58.6,54.0,50.4,97,83,57,30.10,29.93,9,1,11,0.00
2013-5-1,64.8,56.8,51.8,55.0,51.7,49.8,94,84,62,30.20,30.09,10,1,10,0.00
2013-5-2,59.0,53.4,50.9,56.8,51.6,49.5,97,94,86,30.23,30.15,8,1,8,0.09
2013-5-3,55.9,51.1,48.9,52.3,49.7,48.0,98,95,83,30.18,30.04,10,1,11,0.29
2013-5-4,49.5,45.9,42.4,48.6,45.1,41.2,98,97,93,30.04,29.92,9,1,11,1.36
2013-5-5,48.7,46.1,43.9,48.4,45.6,43.3,99,98,98,29.96,29.80,11,1,11,2.75
2013-5-6,59.0,49.6,43.7,49.6,46.2,41.0,99,89,63,29.87,29.75,11,1,11,0.23
2013-5-7,62.6,51.4,42.1,51.4,44.6,39.6,92,79,52,29.94,29.83,7,1,8,0.01
2013-5-8,64.0,56.3,48.2,54.1,50.1,45.7,95,81,64,30.02,29.88,9,1,14,0.00
2013-5-9,76.8,62.0,50.2,59.5,53.3,48.2,96,76,42,30.07,29.98,9,1,9,0.00
2013-5-10,72.7,64.0,57.9,60.6,55.6,51.3,84,74,62,30.05,29.89,12,1,16,0.00
2013-5-11,73.8,61.3,56.3,62.6,55.6,51.4,90,82,55,29.91,29.77,15,1,15,0.00
2013-5-12,67.6,55.0,45.0,53.1,39.2,23.9,90,60,20,30.01,29.80,12,2,13,0.00
2013-5-13,66.0,50.5,39.4,32.5,28.7,21.9,72,47,19,30.17,30.00,13,1,13,0.00
2013-5-14,71.2,55.6,42.3,50.4,40.0,28.6,73,57,41,30.21,30.09,12,1,12,0.00
2013-5-15,84.0,69.5,58.1,63.3,52.1,46.6,76,56,30,30.09,29.92,15,2,16,0.00
2013-5-16,77.4,66.8,60.1,62.1,54.3,46.9,81,65,45,29.98,29.90,7,1,8,0.00
2013-5-17,77.7,66.4,60.4,61.9,57.0,52.2,85,73,51,30.04,29.95,9,1,11,0.00
2013-5-18,62.8,60.5,59.4,60.4,58.8,56.1,98,94,81,30.04,29.97,9,0,11,1.32
2013-5-19,67.1,62.0,59.7,65.5,61.0,58.6,99,97,90,30.06,29.96,8,0,8,0.28
2013-5-20,77.4,64.6,57.7,69.4,61.8,56.8,98,91,71,30.06,29.99,9,1,9,0.63
2013-5-21,78.3,67.1,62.2,69.4,62.4,55.4,96,86,62,29.99,29.89,9,1,9,0.02
2013-5-22,77.0,65.8,58.8,70.0,62.4,56.8,97,89,70,29.96,29.81,8,1,11,0.70
2013-5-23,78.1,65.6,58.6,64.2,57.7,50.9,98,78,41,29.87,29.80,11,1,12,0.17
2013-5-24,73.4,59.9,49.3,51.6,41.9,25.0,88,56,22,30.15,29.81,12,2,13,0.00
2013-5-25,71.8,57.5,44.8,52.3,40.2,28.2,69,54,28,30.25,30.13,9,1,9,0.00
2013-5-26,75.0,60.8,54.9,55.0,44.3,29.3,81,56,31,30.22,30.13,8,1,10,0.00
2013-5-27,75.2,64.1,55.8,60.4,54.8,50.0,84,73,53,30.21,30.10,8,1,9,0.00
2013-5-28,77.7,66.9,59.4,66.2,58.8,55.6,90,76,57,30.15,30.09,8,1,9,0.00
2013-5-29,78.4,67.3,58.6,64.9,59.6,55.9,93,78,53,30.17,30.10,9,1,10,0.00
2013-5-30,78.4,66.9,60.3,65.5,59.9,57.2,95,79,57,30.20,30.11,8,0,8,0.00
2013-5-31,76.8,67.8,61.9,64.8,61.1,57.9,94,80,59,30.16,30.05,8,1,8,0.00
2013-6-1,77.4,67.7,62.1,65.8,62.5,60.3,96,84,65,30.06,29.97,10,1,12,0.01
2013-6-2,67.3,64.1,61.5,66.7,63.0,60.6,98,96,89,30.01,29.84,10,0,12,2.19
2013-6-3,79.7,67.2,59.9,66.6,62.0,58.3,98,85,53,29.90,29.81,9,0,9,0.01
2013-6-4,79.7,67.9,60.4,67.3,60.8,55.9,91,79,60,30.01,29.88,6,1,7,0.00
2013-6-5,75.7,66.7,60.6,68.2,63.4,59.5,97,89,74,30.00,29.88,9,1,9,2.33
2013-6-6,69.3,63.8,59.5,66.9,62.5,58.5,98,95,90,29.91,29.74,6,0,6,0.40
2013-6-7,82.4,67.1,61.9,70.3,63.5,60.4,98,89,54,29.77,29.62,8,0,9,0.29
2013-6-8,75.7,66.2,58.3,70.2,62.5,57.2,97,88,68,30.05,29.76,6,0,7,0.01
2013-6-9,79.0,66.6,63.1,70.9,63.8,61.2,98,91,71,30.08,29.96,12,1,12,3.53
2013-6-10,74.7,65.8,61.3,68.2,63.6,59.0,98,93,60,29.98,29.86,12,1,14,2.07
2013-6-11,84.0,70.3,61.2,66.4,61.4,57.0,97,76,43,29.96,29.88,10,1,11,0.14
2013-6-12,88.7,74.0,64.8,74.3,65.9,60.6,89,77,52,29.97,29.88,7,1,8,0.00
2013-6-13,86.5,71.7,63.0,68.9,63.9,60.4,96,78,45,29.88,29.65,15,2,15,0.49
2013-6-14,81.0,66.5,54.9,63.3,56.0,51.3,96,72,40,29.99,29.73,11,0,11,0.01
2013-6-15,77.7,66.2,58.1,65.7,56.9,49.5,82,72,59,30.09,29.99,9,1,9,0.00
2013-6-16,80.2,69.3,62.1,68.7,61.5,55.2,87,76,63,30.09,29.97,9,1,11,0.00
2013-6-17,77.5,68.8,63.9,70.2,65.7,62.4,96,90,70,29.99,29.88,6,0,6,1.38
2013-6-18,75.9,67.7,63.7,70.9,64.9,61.9,98,91,73,29.90,29.75,10,0,13,0.03
2013-6-19,75.6,66.9,59.9,68.0,62.3,57.7,95,86,71,30.07,29.85,6,0,6,0.00
2013-6-20,73.6,66.0,59.5,66.6,61.9,57.7,97,87,74,30.18,30.05,6,0,7,0.00
2013-6-21,81.0,68.4,60.1,67.8,61.8,58.5,96,81,54,30.21,30.12,9,0,9,0.00
2013-6-22,81.9,68.2,58.6,66.9,60.4,56.8,95,78,47,30.18,30.06,7,0,7,0.00
2013-6-23,76.8,68.4,62.8,69.1,63.5,57.7,95,85,70,30.15,30.06,8,0,8,1.68
2013-6-24,75.9,68.5,62.8,71.1,65.9,61.3,98,92,78,30.17,30.05,6,0,6,0.62
2013-6-25,80.2,69.5,65.3,71.8,65.5,61.9,95,88,68,30.10,29.97,7,0,7,0.88
2013-6-26,81.1,70.2,64.2,73.0,66.4,62.6,97,89,67,30.00,29.87,8,0,8,0.02
2013-6-27,83.5,72.1,64.2,73.8,67.1,62.2,96,85,63,29.91,29.71,10,1,10,0.14
2013-6-28,83.7,72.6,64.4,70.5,65.4,63.0,96,79,52,29.76,29.57,14,1,14,0.00
2013-6-29,82.6,70.5,62.1,67.6,61.0,55.4,92,74,44,29.65,29.55,7,0,7,0.00
2013-6-30,79.2,69.3,62.4,67.1,61.0,55.9,90,75,59,29.75,29.63,8,0,8,0.95
2013-7-1,76.6,65.3,59.5,70.0,62.7,58.1,98,92,72,29.91,29.72,7,1,11,3.24
2013-7-2,75.2,66.9,61.5,69.4,64.9,60.6,98,93,78,30.07,29.90,9,1,10,1.14
2013-7-3,69.3,64.4,60.1,68.9,63.8,59.2,99,98,93,30.17,30.01,9,1,10,2.35
2013-7-4,66.7,63.4,60.4,66.4,63.0,59.9,99,99,98,30.17,30.11,14,1,14,3.55
2013-7-5,78.1,67.0,63.0,70.0,65.1,62.6,99,94,71,30.20,30.12,15,1,15,0.58
2013-7-6,73.8,66.9,63.0,70.7,65.7,62.1,99,96,84,30.15,30.05,13,1,13,1.75
2013-7-7,73.8,68.2,65.3,71.1,67.1,64.8,99,97,88,30.11,30.04,8,1,12,0.45
2013-7-8,80.1,70.2,64.6,73.6,67.4,63.1,97,91,72,30.14,30.05,5,0,6,0.22
2013-7-9,80.1,70.9,65.3,74.7,68.6,64.8,99,93,76,30.12,30.00,7,0,7,0.09
2013-7-10,80.4,70.2,66.0,74.1,68.4,65.1,98,94,76,30.07,29.90,7,0,7,0.56
2013-7-11,75.7,68.9,64.4,72.3,67.5,63.3,98,95,87,29.91,29.82,5,0,5,1.03
2013-7-12,80.1,67.5,60.6,72.1,65.3,59.5,99,93,72,29.94,29.82,7,0,7,0.09
2013-7-13,72.9,64.8,60.1,69.4,63.4,59.2,98,95,85,30.07,29.93,6,0,7,0.67
2013-7-14,68.7,66.2,65.5,68.4,65.5,64.2,99,98,95,30.23,30.05,9,1,11,1.11
2013-7-15,79.9,70.3,64.2,71.6,66.9,63.7,99,90,69,30.28,30.20,7,0,9,0.05
2013-7-16,84.6,73.3,66.4,74.8,68.8,65.5,98,87,55,30.27,30.17,7,0,8,0.01
2013-7-17,87.1,73.2,66.4,75.0,68.4,64.4,95,86,59,30.21,30.07,5,0,5,0.14
2013-7-18,82.6,72.1,64.8,74.7,67.8,62.6,97,87,70,30.14,30.02,6,0,6,0.00
2013-7-19,82.9,73.0,66.0,75.2,68.4,63.3,94,86,68,30.08,29.93,7,0,8,0.00
2013-7-20,81.0,70.6,67.1,74.7,68.1,65.5,96,92,73,29.99,29.87,5,0,5,0.53
2013-7-21,77.7,69.4,65.5,73.0,67.0,64.2,98,92,74,29.96,29.87,4,0,7,1.41
2013-7-22,79.5,69.4,63.7,73.9,67.2,63.1,99,93,79,29.94,29.80,8,0,8,0.13
2013-7-23,81.7,70.2,63.0,72.1,65.8,62.1,97,87,59,29.86,29.74,9,1,10,0.01
2013-7-24,82.8,69.2,64.0,73.0,65.5,61.0,96,89,64,29.81,29.70,8,1,8,0.08
2013-7-25,81.9,68.5,61.9,72.9,64.4,59.9,96,87,66,29.97,29.79,6,1,7,0.55
2013-7-26,78.4,68.0,61.5,70.9,64.9,60.1,97,90,67,30.04,29.96,7,0,10,0.02
2013-7-27,75.0,69.0,64.8,70.2,66.6,62.8,98,92,79,29.98,29.83,7,0,7,0.09
2013-7-28,78.3,68.8,62.4,73.0,64.4,59.0,96,86,70,29.97,29.84,6,0,6,0.00
2013-7-29,81.3,69.1,61.5,70.0,62.8,58.3,92,81,62,30.12,29.96,6,0,7,0.00
2013-7-30,78.6,69.5,61.5,71.2,64.3,57.6,93,84,68,30.15,30.07,6,1,7,0.00
2013-7-31,72.0,67.0,63.9,68.9,65.5,62.6,98,95,89,30.12,29.91,5,0,6,0.12
2013-8-1,83.5,70.7,63.7,73.6,66.6,62.8,98,88,59,29.94,29.83,7,0,8,0.00
2013-8-2,81.0,70.9,63.0,72.3,65.5,59.7,94,83,67,29.98,29.86,7,1,7,0.00
2013-8-3,81.0,71.9,66.0,70.9,64.8,59.7,93,79,56,29.98,29.90,5,0,6,0.00
2013-8-4,84.0,72.3,64.0,70.9,64.5,57.0,93,78,55,29.97,29.89,8,1,9,0.00
2013-8-5,79.0,69.7,62.6,71.2,63.7,56.5,94,82,67,29.99,29.91,10,0,10,0.00
2013-8-6,78.6,70.2,66.0,72.1,67.1,64.6,96,90,76,29.95,29.88,7,0,7,0.01
2013-8-11,83.3,71.8,66.6,73.8,68.0,64.6,96,88,67,30.09,30.00,6,0,6,0.06
2013-8-12,83.7,72.5,66.6,75.4,68.4,65.3,97,88,65,30.05,29.91,5,0,7,0.01
2013-8-13,81.3,70.9,65.8,74.5,66.5,63.1,96,86,64,29.92,29.78,8,0,8,0.10
2013-8-14,76.5,66.4,61.5,68.7,62.6,57.4,96,88,71,30.01,29.82,6,0,7,0.00
2013-8-15,64.9,60.5,55.9,59.4,57.3,54.0,96,89,77,30.09,29.99,6,0,7,0.00
2013-8-16,67.8,59.8,54.7,61.5,56.5,53.2,96,89,75,30.12,30.04,6,0,6,0.00
2013-8-17,64.9,59.7,55.4,60.6,57.6,53.8,97,93,83,30.14,30.07,4,0,4,0.23
2013-8-18,69.6,63.4,59.5,66.9,62.2,58.6,98,96,89,30.19,30.09,6,0,7,0.22
2013-8-19,69.1,64.5,61.5,66.4,63.3,60.6,98,96,91,30.16,30.04,4,0,5,1.97
2013-8-20,75.9,67.1,61.5,70.9,65.1,61.0,98,94,80,30.15,30.06,6,0,7,0.01
2013-8-21,70.0,66.2,64.2,68.4,65.1,63.1,98,96,91,30.19,30.09,3,0,4,0.60
2013-8-22,80.8,70.5,64.6,72.3,66.4,63.1,97,87,64,30.13,29.99,5,0,5,0.00
2013-8-23,82.2,69.8,63.1,72.7,65.4,61.0,96,86,64,30.02,29.92,6,0,6,0.28
2013-8-24,79.3,67.0,58.6,68.0,62.3,56.3,98,86,61,30.25,30.01,7,0,10,0.00
2013-8-25,75.4,63.6,55.8,65.8,58.1,52.7,94,83,64,30.34,30.24,7,0,8,0.00
2013-8-26,78.6,66.5,56.8,68.0,60.8,54.9,95,83,60,30.29,30.09,8,0,8,0.00
2013-8-27,81.7,69.4,60.3,70.5,63.4,57.4,95,82,59,30.11,29.98,5,0,7,0.00
2013-8-28,82.8,72.2,64.9,73.6,65.9,61.3,91,81,61,30.00,29.90,7,0,7,0.00
2013-8-29,85.5,73.9,65.8,75.4,68.2,64.0,94,83,65,29.92,29.86,5,0,5,0.00
2013-8-30,76.5,70.1,67.3,71.1,67.5,65.1,97,92,81,29.97,29.88,8,0,8,0.02
2013-8-31,80.2,71.1,65.1,73.2,67.5,64.0,97,89,71,29.92,29.83,7,0,7,0.00
2013-9-1,83.1,72.4,66.6,75.0,68.3,64.6,94,87,70,29.86,29.74,7,0,7,0.00
2013-9-2,83.1,71.1,64.4,72.7,66.3,62.6,95,86,62,29.86,29.77,5,0,6,0.06
2013-9-3,84.2,71.1,60.6,71.4,64.5,59.2,97,81,51,29.93,29.78,6,1,6,0.50
2013-9-4,81.3,70.1,62.6,70.7,64.3,59.7,93,82,64,30.05,29.91,6,1,7,0.00
2013-9-5,82.8,71.3,64.2,70.5,64.5,56.8,95,80,60,30.07,30.00,7,0,7,0.00
2013-9-6,77.7,67.7,59.4,66.7,60.1,50.9,91,77,59,30.12,30.02,7,1,7,0.00
2013-9-7,77.5,67.3,61.3,68.9,62.7,58.6,92,86,70,30.07,29.96,7,0,7,0.00
2013-9-8,79.0,69.0,62.1,69.6,64.0,60.3,95,85,67,29.97,29.90,5,0,5,0.00
2013-9-9,82.2,70.5,64.8,71.4,65.4,61.7,93,85,62,30.09,29.96,6,0,7,0.02
2013-9-10,81.3,70.8,64.2,70.7,65.5,61.5,94,84,64,30.18,30.08,7,0,7,0.00
2013-9-11,82.6,71.4,64.0,72.1,65.4,60.8,94,82,61,30.17,30.04,6,0,7,0.00
2013-9-12,82.8,70.5,64.9,71.1,65.1,59.9,95,84,61,30.04,29.82,8,1,8,0.00
2013-9-13,79.9,66.3,57.0,62.2,57.9,50.7,95,76,47,29.83,29.74,8,1,8,0.02
2013-9-14,74.8,60.5,49.8,59.7,53.2,47.8,96,78,54,30.08,29.83,7,1,7,0.00
2013-9-15,74.5,62.5,55.9,63.5,57.8,52.7,92,85,65,30.16,30.08,7,0,7,0.00
2013-9-16,82.9,68.1,61.9,67.5,61.7,58.6,93,81,49,30.12,30.02,5,0,6,0.00
2013-9-17,66.0,61.4,57.2,60.4,56.7,54.1,92,85,69,30.21,30.09,6,0,6,0.00
2013-9-18,67.6,58.9,54.3,60.6,55.8,52.0,94,90,76,30.23,30.12,6,0,7,0.00
2013-9-19,74.7,64.2,56.3,66.4,60.6,54.9,98,89,70,30.16,30.05,5,0,5,0.00
2013-9-20,78.6,67.4,61.0,68.7,63.0,59.2,95,86,66,30.06,29.88,5,0,7,0.04
2013-9-21,64.9,62.2,57.0,62.6,60.8,55.9,98,95,88,29.89,29.62,8,1,12,1.58
2013-9-22,75.6,61.6,53.1,64.9,57.1,52.0,98,86,62,29.87,29.69,6,1,8,0.00
2013-9-23,71.2,61.1,55.0,61.0,56.0,52.7,94,84,66,30.01,29.87,7,0,7,0.00
2013-9-24,69.8,60.4,54.7,63.0,57.3,53.1,95,90,76,30.01,29.90,7,0,7,0.00
2013-9-25,59.9,58.1,55.9,58.5,57.1,55.0,98,97,95,29.90,29.81,4,0,4,1.46
2013-9-26,69.6,59.8,54.5,64.2,57.7,53.4,98,93,81,30.00,29.85,5,0,7,0.00
2013-9-27,74.1,60.3,50.4,62.2,55.6,49.3,98,86,59,30.14,30.00,7,0,8,0.00
2013-9-28,66.6,57.9,51.6,59.4,54.2,49.6,96,88,75,30.19,30.10,6,0,8,0.00
2013-9-29,68.4,56.6,48.4,59.4,52.9,46.8,96,88,69,30.14,30.00,5,0,6,0.00
2013-9-30,69.3,58.4,52.3,60.1,55.1,50.9,96,89,67,30.06,29.98,5,0,7,0.00
2013-10-1,73.2,61.9,55.2,62.2,56.9,53.2,95,84,63,30.12,30.03,5,0,7,0.00
2013-10-2,77.5,64.6,57.7,64.2,58.8,55.2,95,82,56,30.12,30.04,7,0,7,0.00
2013-10-3,74.1,65.3,60.6,64.8,59.1,54.7,88,81,67,30.09,30.02,5,0,7,0.00
2013-10-4,78.1,66.2,58.6,66.4,60.3,56.7,94,82,58,30.12,30.05,6,0,8,0.00
2013-10-5,79.7,68.3,61.9,67.6,61.4,58.1,91,80,56,30.09,29.99,6,0,6,0.00
2013-10-6,72.9,65.9,61.0,64.8,61.2,59.0,94,85,71,30.00,29.83,9,0,9,0.00
2013-10-7,72.0,62.4,52.0,66.4,59.4,48.9,97,90,74,29.94,29.73,6,0,8,0.00
2013-10-8,69.4,55.8,48.9,55.8,50.0,45.0,94,82,53,30.15,29.92,7,0,8,0.08
2013-10-9,67.1,53.4,43.7,55.9,48.1,42.4,95,83,60,30.19,30.11,6,0,7,0.00
2013-10-10,74.5,58.5,50.2,57.9,52.3,46.4,96,81,51,30.12,29.98,6,0,7,0.00
2013-10-11,73.4,60.9,54.0,60.8,52.4,47.8,90,75,45,29.99,29.91,5,0,5,0.00
2013-10-12,70.0,60.7,54.7,61.5,55.6,51.4,90,84,66,30.06,29.94,6,0,6,0.00
2013-10-13,67.1,60.9,57.2,62.2,57.9,54.0,97,90,80,30.17,30.05,6,0,6,0.04
2013-10-14,64.6,59.0,55.9,61.2,57.5,55.0,98,95,85,30.18,30.09,6,0,7,0.04
2013-10-15,64.2,57.0,54.1,59.7,55.2,53.1,97,94,77,30.15,30.02,6,0,6,0.00
2013-10-16,62.1,56.7,52.3,57.9,54.0,49.8,96,91,81,30.05,29.93,6,0,6,0.01
2013-10-17,60.3,58.1,54.3,59.7,57.3,53.8,99,97,92,29.95,29.83,5,0,5,0.12
2013-10-18,64.4,55.2,47.5,57.4,52.5,46.6,99,91,73,29.99,29.86,8,1,8,0.00
2013-10-19,59.9,53.8,47.5,54.9,48.0,37.9,97,81,45,29.94,29.83,6,0,7,0.00
2013-10-20,62.4,49.7,39.9,49.6,43.0,36.3,96,79,55,30.07,29.90,7,1,7,0.00
2013-10-21,63.0,51.3,45.3,54.9,47.9,42.3,96,88,73,30.11,29.99,8,0,8,0.00
2013-10-22,66.4,55.7,49.8,56.3,49.5,43.0,94,80,55,30.01,29.77,6,0,6,0.01
2013-10-23,54.5,45.5,34.3,44.2,36.4,28.2,88,72,49,29.99,29.69,13,2,16,0.00
2013-10-24,53.8,41.5,32.5,39.4,32.6,26.8,84,71,51,30.17,29.99,10,1,11,0.00
2013-10-25,52.7,38.8,29.7,33.4,27.8,21.6,87,67,35,30.35,30.16,8,1,8,0.00
2013-10-26,52.3,40.5,31.6,41.7,32.1,25.9,81,72,55,30.34,30.10,8,1,8,0.00
2013-10-27,62.2,52.0,44.4,51.1,46.0,40.3,88,80,63,30.12,30.05,9,0,9,0.00
2013-10-28,60.8,53.6,50.2,54.7,50.2,47.7,96,89,73,30.23,30.07,5,0,6,0.03
2013-10-29,64.4,54.6,48.2,54.1,49.7,46.8,95,84,60,30.31,30.20,5,0,6,0.00
2013-10-30,72.9,60.2,53.6,59.7,54.3,50.2,93,82,55,30.26,30.14,7,0,8,0.00
2013-10-31,59.0,57.2,55.9,58.5,54.1,51.4,98,89,82,30.14,29.84,17,1,17,0.30
2013-11-1,69.3,59.6,51.3,62.1,56.2,45.3,98,89,51,29.85,29.61,15,1,16,0.54
2013-11-2,61.2,49.0,41.2,47.3,40.9,36.0,88,74,45,29.96,29.70,16,1,16,0.02
2013-11-3,59.7,45.8,37.2,40.8,36.0,33.3,88,70,44,30.33,29.94,7,1,9,0.00
2013-11-4,55.4,42.8,34.9,37.2,33.3,30.9,88,71,44,30.48,30.33,10,0,10,0.00
2013-11-5,60.1,44.5,32.9,42.1,33.0,24.3,90,68,27,30.51,30.40,6,0,6,0.00
2013-11-6,60.4,52.8,46.6,54.1,50.3,42.6,97,91,78,30.42,30.11,6,0,6,0.33
2013-11-7,63.9,52.3,36.1,55.9,43.8,24.4,97,75,39,30.12,29.95,12,1,12,0.03
2013-11-8,57.6,42.5,31.8,32.2,25.1,11.8,76,53,18,30.31,30.07,7,1,8,0.00
2013-11-9,51.3,43.1,36.1,35.1,27.9,16.5,67,55,30,30.33,30.22,8,1,9,0.00
2013-11-10,67.3,52.7,44.4,34.0,27.3,12.9,60,39,23,30.25,30.15,11,1,13,0.00
2013-11-11,58.3,47.5,41.5,35.1,30.7,25.5,62,52,38,30.27,30.13,7,1,7,0.00
2013-11-12,54.0,42.2,20.7,38.5,26.8,12.0,73,55,43,30.36,30.04,11,1,13,0.00
2013-11-13,49.8,32.6,19.9,18.0,12.2,2.8,77,46,20,30.54,30.35,8,1,9,0.00
2013-11-14,55.2,42.5,32.7,27.1,16.1,6.3,45,35,24,30.49,30.31,8,1,8,0.00
2013-11-15,48.6,45.8,39.9,47.8,38.3,1.9,98,80,19,30.32,30.17,7,0,7,0.36
2013-11-16,57.2,50.4,47.1,55.6,49.7,46.6,99,98,91,30.25,30.16,7,0,7,0.04
2013-11-17,57.9,53.9,51.6,57.6,53.5,51.1,99,99,98,30.19,29.87,6,0,9,0.64
2013-11-18,66.7,54.3,40.5,57.0,43.0,30.7,99,69,35,29.94,29.83,10,1,10,0.02
2013-11-19,54.9,42.5,35.2,31.6,26.9,20.5,75,56,30,30.21,29.93,8,1,11,0.00
2013-11-20,49.8,38.7,29.5,31.8,27.6,24.1,85,65,44,30.42,30.21,8,1,8,0.00
2013-11-21,50.7,45.3,38.1,50.2,42.5,30.7,98,90,74,30.45,30.36,5,0,5,0.50
2013-11-22,60.3,53.8,50.0,59.7,53.1,49.5,99,97,90,30.38,30.09,5,0,5,0.07
2013-11-23,54.7,47.5,31.6,54.1,39.9,11.8,98,77,34,30.10,30.03,14,2,14,0.01
2013-11-24,43.3,30.6,22.5,22.1,10.9,-0.6,73,47,17,30.49,30.10,8,1,15,0.00
2013-11-25,39.4,29.1,21.6,26.4,12.3,5.0,84,50,31,30.51,30.32,6,0,6,0.00
2013-11-26,46.0,40.9,30.4,45.9,40.1,26.8,99,97,85,30.32,29.62,6,1,10,4.15
2013-11-27,44.8,31.3,20.1,44.2,27.2,15.6,98,85,68,30.17,29.55,16,2,18,0.08
2013-11-28,44.1,31.1,18.9,28.0,21.2,11.7,86,67,45,30.49,30.17,9,1,9,0.02
2013-11-29,56.5,41.2,32.2,30.9,21.6,11.1,72,46,30,30.54,30.46,7,1,7,0.02
2013-11-30,47.5,35.0,26.1,28.8,23.8,18.9,86,65,44,30.55,30.36,7,0,7,0.00
2013-12-1,54.9,44.8,37.0,39.7,34.5,19.6,84,68,46,30.36,29.98,8,1,8,0.00
2013-12-2,52.9,44.4,39.9,42.6,38.1,31.3,95,79,65,29.98,29.80,6,0,6,0.00
2013-12-3,48.4,46.1,43.9,47.7,45.4,42.3,98,97,94,29.94,29.83,6,0,6,0.04
2013-12-4,55.2,51.9,47.7,54.9,51.5,47.1,99,99,98,30.06,29.92,7,0,8,0.03
2013-12-5,61.3,57.8,54.5,61.0,57.4,54.1,99,99,99,30.06,29.96,15,1,15,1.34
2013-12-6,61.5,60.5,55.4,61.2,60.2,54.9,99,99,98,30.00,29.89,11,2,19,1.68
2013-12-7,57.4,50.3,41.4,56.8,48.6,40.8,99,94,82,30.28,29.93,9,1,9,0.03
2013-12-8,41.4,37.7,35.4,40.8,37.4,35.1,99,99,98,30.29,30.20,2,0,4,0.53
2013-12-9,58.5,49.0,37.6,57.9,47.9,37.4,100,96,87,30.21,29.98,11,1,11,1.31
2013-12-10,52.0,43.0,29.7,51.6,36.2,15.3,99,78,52,30.25,29.83,18,2,19,0.34
2013-12-11,50.5,38.0,28.6,30.6,15.8,5.0,65,41,23,30.41,30.25,7,1,8,0.00
2013-12-12,47.5,34.8,26.2,22.1,13.4,2.5,73,45,16,30.38,30.24,14,1,14,0.00
2013-12-13,48.2,37.1,30.0,26.1,19.2,8.4,63,48,36,30.36,30.24,8,1,8,0.00
2013-12-14,44.4,40.4,37.2,43.9,36.3,19.8,98,87,48,30.25,29.78,5,0,6,1.22
2013-12-15,46.2,38.2,29.8,43.5,32.9,25.5,98,82,58,30.09,29.73,12,2,13,0.00
2013-12-16,53.4,40.2,29.8,29.8,26.6,23.2,85,61,33,30.19,30.07,13,1,13,0.00
2013-12-17,58.8,45.4,35.6,33.3,29.3,20.3,68,55,32,30.16,29.97,18,2,18,0.00
2013-12-18,48.7,37.6,27.3,22.3,15.8,5.5,63,43,20,30.31,29.99,14,1,18,0.00
2013-12-19,61.9,48.3,42.3,31.5,24.2,16.2,47,39,27,30.31,30.19,8,1,10,0.00
2013-12-20,56.7,48.0,43.0,48.9,37.0,23.4,91,67,45,30.20,30.12,8,1,11,0.00
2013-12-21,59.4,54.7,51.1,59.0,53.8,48.7,99,97,91,30.13,29.94,18,2,19,0.86
2013-12-22,59.9,55.8,52.7,59.5,55.4,52.3,99,99,99,30.01,29.91,18,2,18,3.61
2013-12-23,53.4,47.7,34.5,53.1,45.8,32.9,99,93,74,30.11,29.96,9,1,10,0.23
2013-12-24,39.9,30.9,22.3,32.9,23.9,17.8,94,76,48,30.39,30.10,10,1,10,0.01
2013-12-25,36.9,27.9,21.7,23.0,18.3,14.4,87,68,49,30.49,30.37,6,1,7,0.00
2013-12-26,50.7,37.1,26.1,28.9,21.3,14.5,80,55,27,30.38,30.28,9,1,11,0.00
2013-12-27,49.5,38.9,31.5,28.0,24.8,22.1,78,58,39,30.44,30.33,6,0,7,0.00
2013-12-28,46.9,42.3,37.4,38.5,28.8,19.4,96,61,36,30.41,30.04,7,0,7,0.48
2013-12-29,55.9,44.5,37.8,46.9,40.6,31.6,98,87,65,30.04,29.79,14,1,15,1.60
2013-12-30,46.8,40.5,37.0,38.7,35.6,31.6,90,83,66,30.12,29.92,12,1,14,0.00
2013-12-31,44.8,35.5,30.6,32.4,23.6,19.0,82,63,36,30.36,30.09,17,1,17,0.00
2014-1-1,43.0,36.3,33.4,30.4,26.0,19.0,85,66,53,30.37,30.14,8,0,8,0.00
2014-1-2,44.4,35.9,17.4,43.9,33.0,11.7,98,89,77,30.15,29.67,21,1,21,0.12